Time;durP1;ratioP1;P1;durP2;ratioP2;P2;SDS_P1;SDS_P2;PMS_P1;PMS_P2;Temp;Humidity;BMP_temperature;BMP_pressure;BME280_temperature;BME280_humidity;BME280_pressure;Samples;Min_cycle;Max_cycle;Signal;HPM_P1;HPM_P2
2022/05/18 00:01:08;;;;;;;2.90;1.10;;;15.80;77.10;;;;;;4886164;28;95508;-45
2022/05/18 00:03:44;;;;;;;1.45;0.98;;;15.80;77.10;;;;;;4891832;28;95885;-43
2022/05/18 00:06:14;;;;;;;2.72;1.30;;;15.80;77.00;;;;;;4892279;28;96004;-44
2022/05/18 00:08:45;;;;;;;0.70;0.60;;;15.80;77.00;;;;;;4892667;28;95632;-44
2022/05/18 00:11:20;;;;;;;1.85;1.05;;;15.80;77.00;;;;;;4892862;28;95657;-44
2022/05/18 00:13:54;;;;;;;0.95;0.85;;;15.80;77.10;;;;;;4892243;28;95960;-44
2022/05/18 00:16:26;;;;;;;1.70;0.80;;;15.80;77.10;;;;;;4877851;28;96035;-45
2022/05/18 00:18:58;;;;;;;1.17;0.90;;;15.80;77.10;;;;;;4885198;28;96296;-45
2022/05/18 00:21:30;;;;;;;2.03;1.05;;;15.80;77.10;;;;;;4890877;28;95304;-46
2022/05/18 00:24:03;;;;;;;3.00;1.13;;;15.80;77.10;;;;;;4889972;28;95805;-45
2022/05/18 00:26:34;;;;;;;1.95;1.17;;;15.80;77.10;;;;;;4891724;28;96208;-45
2022/05/18 00:29:06;;;;;;;2.40;1.02;;;15.80;77.10;;;;;;4891971;28;96286;-46
2022/05/18 00:31:37;;;;;;;2.92;0.82;;;15.80;77.10;;;;;;4885876;28;95635;-48
2022/05/18 00:34:09;;;;;;;2.70;1.10;;;15.80;77.10;;;;;;4891508;28;95970;-46
2022/05/18 00:36:40;;;;;;;;;;;15.80;77.10;;;;;;4889944;28;96424;-45
2022/05/18 00:39:11;;;;;;;2.97;0.98;;;15.80;77.10;;;;;;4891317;28;95765;-45
2022/05/18 00:41:43;;;;;;;2.40;1.13;;;15.70;77.10;;;;;;4880542;28;95531;-46
2022/05/18 00:44:13;;;;;;;2.17;1.00;;;15.80;77.10;;;;;;4888804;28;95426;-45
2022/05/18 00:46:43;;;;;;;3.45;1.20;;;15.70;77.10;;;;;;4875617;28;97827;-45
2022/05/18 00:49:16;;;;;;;2.00;0.90;;;15.70;77.80;;;;;;4892615;28;96029;-44
2022/05/18 00:51:53;;;;;;;2.47;1.08;;;15.70;77.20;;;;;;4891228;28;95749;-45
2022/05/18 00:54:31;;;;;;;2.38;1.10;;;15.70;77.10;;;;;;4892843;28;95485;-46
2022/05/18 00:57:23;;;;;;;2.10;0.90;;;15.70;77.20;;;;;;4890665;28;96224;-45
2022/05/18 00:59:56;;;;;;;;;;;15.70;77.10;;;;;;4891727;28;95537;-45
2022/05/18 01:02:29;;;;;;;2.30;0.95;;;15.70;77.10;;;;;;4887310;28;95662;-44
2022/05/18 01:05:05;;;;;;;3.03;1.17;;;15.70;77.10;;;;;;4892231;28;95601;-44
2022/05/18 01:07:43;;;;;;;1.17;1.02;;;15.70;77.10;;;;;;4885182;28;96154;-44
2022/05/18 01:10:15;;;;;;;1.05;0.80;;;15.70;77.10;;;;;;4888832;28;95891;-42
2022/05/18 01:12:48;;;;;;;1.98;0.98;;;15.70;77.70;;;;;;4891468;28;97797;-42
2022/05/18 01:15:22;;;;;;;2.80;1.15;;;15.70;77.00;;;;;;4886880;28;96879;-43
2022/05/18 01:17:58;;;;;;;2.72;0.90;;;15.70;77.10;;;;;;4882068;28;96774;-42
2022/05/18 01:20:37;;;;;;;2.22;1.13;;;15.70;77.10;;;;;;4891244;28;96038;-43
2022/05/18 01:23:26;;;;;;;1.20;1.05;;;15.70;77.10;;;;;;4893556;28;95289;-44
2022/05/18 01:26:15;;;;;;;2.92;1.15;;;15.70;77.10;;;;;;4889166;28;95802;-45
2022/05/18 01:28:55;;;;;;;4.60;1.40;;;15.70;77.20;;;;;;4890171;28;96536;-44
2022/05/18 01:31:51;;;;;;;2.28;0.93;;;15.70;77.20;;;;;;4884780;28;95885;-43
2022/05/18 01:34:27;;;;;;;1.00;0.77;;;15.70;77.10;;;;;;4891192;28;95970;-43
2022/05/18 01:36:59;;;;;;;2.00;1.52;;;15.70;77.20;;;;;;4890897;28;96113;-44
2022/05/18 01:39:37;;;;;;;2.60;1.73;;;15.70;77.20;;;;;;4888076;28;96256;-43
2022/05/18 01:42:30;;;;;;;2.15;1.38;;;15.70;77.20;;;;;;4888604;28;95512;-43
2022/05/18 01:45:00;;;;;;;0.88;0.85;;;15.70;77.20;;;;;;4890402;28;96058;-44
2022/05/18 01:47:34;;;;;;;4.25;1.13;;;15.70;77.20;;;;;;4891382;28;95372;-45
2022/05/18 01:50:13;;;;;;;3.63;1.08;;;15.70;77.20;;;;;;4891703;28;96569;-46
2022/05/18 01:52:44;;;;;;;2.00;0.85;;;15.70;77.40;;;;;;4889364;28;95559;-43
2022/05/18 01:55:17;;;;;;;1.98;0.88;;;15.70;77.50;;;;;;4894969;28;95711;-45
2022/05/18 01:57:48;;;;;;;2.15;1.20;;;15.60;77.50;;;;;;4894180;28;95834;-44
2022/05/18 02:00:20;;;;;;;1.60;1.33;;;15.60;77.60;;;;;;4892376;28;96275;-44
2022/05/18 02:02:50;;;;;;;2.85;1.00;;;15.60;77.60;;;;;;4895621;28;95469;-46
2022/05/18 02:05:22;;;;;;;1.73;1.23;;;15.60;77.70;;;;;;4894300;28;95716;-45
2022/05/18 02:07:53;;;;;;;2.45;0.85;;;15.70;77.70;;;;;;4888947;28;95775;-46
2022/05/18 02:10:25;;;;;;;1.58;1.23;;;15.70;77.60;;;;;;4893546;28;96156;-45
2022/05/18 02:12:56;;;;;;;1.73;0.90;;;15.70;77.70;;;;;;4893392;28;96102;-46
2022/05/18 02:15:27;;;;;;;1.05;0.80;;;15.70;77.70;;;;;;4884052;28;95931;-46
2022/05/18 02:17:58;;;;;;;;;;;15.70;77.60;;;;;;4883097;28;95774;-47
2022/05/18 02:20:29;;;;;;;2.78;0.98;;;15.70;77.60;;;;;;4893072;28;96348;-45
2022/05/18 02:23:00;;;;;;;1.30;0.98;;;15.70;77.70;;;;;;4893258;28;95485;-46
2022/05/18 02:25:32;;;;;;;3.60;1.57;;;15.70;77.60;;;;;;4894089;28;95313;-47
2022/05/18 02:28:04;;;;;;;1.65;0.85;;;15.70;77.60;;;;;;4893664;28;96014;-45
2022/05/18 02:30:37;;;;;;;1.75;1.00;;;15.70;77.60;;;;;;4886573;28;96266;-45
2022/05/18 02:33:08;;;;;;;3.57;1.17;;;15.70;77.60;;;;;;4891331;28;96425;-47
2022/05/18 02:35:41;;;;;;;2.42;0.80;;;15.70;77.60;;;;;;4892369;28;95735;-43
2022/05/18 02:38:13;;;;;;;1.75;1.33;;;15.70;78.10;;;;;;4893695;28;95562;-45
2022/05/18 02:40:44;;;;;;;2.22;1.10;;;15.80;77.50;;;;;;4893055;28;96095;-44
2022/05/18 02:43:14;;;;;;;1.88;1.10;;;15.70;77.50;;;;;;4891293;28;96059;-44
2022/05/18 02:45:44;;;;;;;1.83;0.80;;;15.70;77.60;;;;;;4887003;28;95288;-45
2022/05/18 02:48:16;;;;;;;1.30;1.20;;;15.70;77.50;;;;;;4893048;28;95967;-45
2022/05/18 02:50:48;;;;;;;1.55;1.02;;;15.80;77.60;;;;;;4891573;28;96121;-45
2022/05/18 02:53:21;;;;;;;2.30;1.00;;;15.80;77.50;;;;;;4893998;28;95641;-46
2022/05/18 02:56:06;;;;;;;2.53;1.15;;;15.80;77.50;;;;;;4888297;28;95940;-46
2022/05/18 02:58:43;;;;;;;1.58;1.08;;;15.80;77.50;;;;;;4893533;28;95657;-43
2022/05/18 03:01:16;;;;;;;1.73;1.35;;;15.80;77.50;;;;;;4886275;28;96817;-45
2022/05/18 03:03:48;;;;;;;2.15;0.98;;;15.80;77.50;;;;;;4886581;28;96142;-44
2022/05/18 03:06:22;;;;;;;3.55;1.30;;;15.80;77.50;;;;;;4891373;28;95906;-44
2022/05/18 03:08:53;;;;;;;4.22;1.30;;;15.80;77.50;;;;;;4892750;28;95926;-44
2022/05/18 03:11:24;;;;;;;5.68;1.10;;;15.80;77.50;;;;;;4892499;28;96615;-44
2022/05/18 03:13:55;;;;;;;1.20;1.02;;;15.80;77.50;;;;;;4892849;28;95813;-44
2022/05/18 03:16:28;;;;;;;1.63;1.20;;;15.80;77.50;;;;;;4877316;28;97706;-45
2022/05/18 03:19:00;;;;;;;2.03;0.80;;;15.80;77.40;;;;;;4888064;28;95432;-44
2022/05/18 03:24:20;;;;;;;1.55;1.08;;;15.90;77.30;;;;;;4890943;28;96139;-43
2022/05/18 03:26:51;;;;;;;1.73;1.00;;;15.90;77.40;;;;;;4893115;28;95746;-45
2022/05/18 03:29:22;;;;;;;3.35;0.98;;;15.90;77.40;;;;;;4892967;28;95606;-44
2022/05/18 03:31:55;;;;;;;1.25;0.68;;;15.90;77.30;;;;;;4885432;28;95950;-44
2022/05/18 03:34:29;;;;;;;2.30;0.93;;;15.90;77.30;;;;;;4891761;28;95670;-45
2022/05/18 03:37:00;;;;;;;1.88;0.90;;;15.90;77.30;;;;;;4892213;28;97726;-44
2022/05/18 03:39:31;;;;;;;;;;;15.90;77.30;;;;;;4891364;28;95469;-44
2022/05/18 03:42:03;;;;;;;2.08;1.38;;;16.00;77.30;;;;;;4891319;28;95950;-44
2022/05/18 03:44:35;;;;;;;2.05;0.98;;;15.90;77.20;;;;;;4889771;28;96028;-44
2022/05/18 03:47:06;;;;;;;2.03;0.80;;;16.00;77.30;;;;;;4886884;28;95881;-44
2022/05/18 03:49:38;;;;;;;2.92;0.80;;;16.00;77.20;;;;;;4893863;28;96101;-44
2022/05/18 03:52:09;;;;;;;1.17;1.00;;;16.00;77.10;;;;;;4891033;28;96048;-44
2022/05/18 03:54:40;;;;;;;;;;;16.00;77.10;;;;;;4893507;28;97751;-43
2022/05/18 03:57:13;;;;;;;2.20;0.98;;;16.00;77.10;;;;;;4892869;28;95919;-44
2022/05/18 03:59:45;;;;;;;1.40;0.70;;;16.00;77.10;;;;;;4890214;28;95979;-44
2022/05/18 04:02:15;;;;;;;2.30;1.55;;;16.00;77.00;;;;;;4885827;28;95904;-44
2022/05/18 04:04:47;;;;;;;3.03;1.02;;;16.10;76.90;;;;;;4892964;28;95795;-44
2022/05/18 04:07:18;;;;;;;1.47;0.97;;;16.10;76.80;;;;;;4892367;28;95436;-46
2022/05/18 04:09:49;;;;;;;3.17;1.38;;;16.10;76.60;;;;;;4892315;28;95950;-44
2022/05/18 04:12:20;;;;;;;2.00;1.13;;;16.10;76.50;;;;;;4890295;28;95913;-44
2022/05/18 04:14:54;;;;;;;3.22;1.48;;;16.20;76.50;;;;;;4889436;28;95625;-44
2022/05/18 04:17:25;;;;;;;2.00;1.20;;;16.20;76.50;;;;;;4876862;28;96079;-44
2022/05/18 04:19:56;;;;;;;1.88;0.80;;;16.20;76.40;;;;;;4891453;28;95641;-44
2022/05/18 04:22:28;;;;;;;2.97;1.10;;;16.20;76.40;;;;;;4891592;28;96669;-44
2022/05/18 04:25:01;;;;;;;;;;;16.20;76.40;;;;;;4891963;28;96061;-44
2022/05/18 04:27:33;;;;;;;1.88;1.10;;;16.20;76.30;;;;;;4891144;28;95824;-44
2022/05/18 04:30:06;;;;;;;1.85;1.05;;;16.20;76.40;;;;;;4891308;28;95887;-44
2022/05/18 04:32:41;;;;;;;2.22;1.23;;;16.20;76.40;;;;;;4884682;28;95906;-44
2022/05/18 04:35:15;;;;;;;2.22;1.20;;;16.10;76.60;;;;;;4901224;28;96321;-43
2022/05/18 04:37:46;;;;;;;2.95;0.93;;;16.10;76.70;;;;;;4891513;28;95287;-44
2022/05/18 04:40:18;;;;;;;1.98;1.15;;;16.10;76.70;;;;;;4891593;28;95370;-44
2022/05/18 04:42:48;;;;;;;3.80;1.48;;;16.10;76.80;;;;;;4886177;28;96674;-44
2022/05/18 04:45:21;;;;;;;2.43;1.30;;;16.10;73.50;;;;;;4887050;28;96024;-45
2022/05/18 04:47:53;;;;;;;4.47;1.23;;;16.00;76.80;;;;;;4890690;28;95246;-45
2022/05/18 04:50:25;;;;;;;2.17;1.30;;;16.10;76.90;;;;;;4892115;28;95821;-43
2022/05/18 04:52:56;;;;;;;2.10;0.90;;;16.10;76.90;;;;;;4891821;28;96234;-43
2022/05/18 04:55:36;;;;;;;1.45;1.35;;;16.10;77.40;;;;;;4891724;28;96216;-43
2022/05/18 04:58:06;;;;;;;3.37;1.33;;;16.20;73.50;;;;;;4892263;28;95180;-44
2022/05/18 05:00:37;;;;;;;2.08;1.10;;;16.20;76.70;;;;;;4886829;28;95364;-44
2022/05/18 05:03:08;;;;;;;3.08;1.33;;;16.20;76.50;;;;;;4889995;28;96213;-43
2022/05/18 05:05:40;;;;;;;3.13;1.20;;;16.20;76.40;;;;;;4890585;28;95978;-44
2022/05/18 05:08:10;;;;;;;;;;;16.20;76.30;;;;;;4891837;28;95185;-45
2022/05/18 05:10:41;;;;;;;3.13;1.30;;;16.20;76.20;;;;;;4889527;28;95597;-45
2022/05/18 05:13:12;;;;;;;1.10;0.90;;;16.20;76.20;;;;;;4890724;28;97188;-45
2022/05/18 05:15:44;;;;;;;1.13;0.93;;;16.20;76.20;;;;;;4881294;28;95989;-45
2022/05/18 05:18:15;;;;;;;2.50;1.23;;;16.20;76.20;;;;;;4883061;28;95882;-44
2022/05/18 05:20:47;;;;;;;3.60;1.33;;;16.20;76.20;;;;;;4889498;28;95458;-44
2022/05/18 05:23:20;;;;;;;3.38;1.30;;;16.20;76.20;;;;;;4882191;28;96249;-44
2022/05/18 05:25:52;;;;;;;1.92;1.08;;;16.20;76.10;;;;;;4897016;28;95811;-44
2022/05/18 05:28:23;;;;;;;2.97;1.10;;;16.20;76.10;;;;;;4894318;28;95718;-44
2022/05/18 05:30:54;;;;;;;3.25;1.33;;;16.20;76.10;;;;;;4889350;28;95535;-43
2022/05/18 05:33:26;;;;;;;2.97;1.60;;;16.20;76.10;;;;;;4894176;28;96773;-45
2022/05/18 05:36:00;;;;;;;3.70;1.02;;;16.20;76.70;;;;;;4892283;28;96068;-46
2022/05/18 05:38:31;;;;;;;1.67;1.17;;;16.20;76.10;;;;;;4892027;28;95999;-44
2022/05/18 05:41:02;;;;;;;1.63;1.42;;;16.20;76.10;;;;;;4894231;28;95721;-45
2022/05/18 05:43:33;;;;;;;1.13;0.93;;;16.20;76.10;;;;;;4892942;28;96866;-44
2022/05/18 05:46:10;;;;;;;1.63;1.20;;;16.20;76.10;;;;;;4889271;28;95843;-44
2022/05/18 05:48:42;;;;;;;2.42;1.17;;;16.20;76.10;;;;;;4890285;28;95856;-46
2022/05/18 05:51:16;;;;;;;3.40;1.10;;;16.10;76.00;;;;;;4893078;28;95568;-44
2022/05/18 05:53:48;;;;;;;3.60;1.77;;;16.10;76.10;;;;;;4892329;28;96076;-45
2022/05/18 05:56:21;;;;;;;2.13;1.08;;;16.10;76.10;;;;;;4894445;28;95645;-45
2022/05/18 05:58:51;;;;;;;2.00;1.00;;;16.10;76.10;;;;;;4894797;28;97174;-45
2022/05/18 06:01:21;;;;;;;2.38;0.88;;;16.10;76.20;;;;;;4889470;28;95979;-42
2022/05/18 06:03:53;;;;;;;2.17;1.08;;;16.10;76.10;;;;;;4897362;28;96259;-42
2022/05/18 06:06:24;;;;;;;2.08;1.20;;;16.10;76.10;;;;;;4894236;28;95627;-43
2022/05/18 06:09:02;;;;;;;2.25;1.20;;;16.10;76.10;;;;;;4893829;28;95373;-43
2022/05/18 06:11:34;;;;;;;2.80;1.30;;;16.10;76.10;;;;;;4892918;28;95426;-43
2022/05/18 06:14:08;;;;;;;5.07;1.65;;;16.10;76.20;;;;;;4890389;28;96890;-45
2022/05/18 06:16:39;;;;;;;2.33;1.02;;;16.10;76.20;;;;;;4895325;28;97865;-43
2022/05/18 06:19:10;;;;;;;3.58;1.17;;;16.10;76.20;;;;;;4888023;28;95364;-43
2022/05/18 06:21:42;;;;;;;1.60;1.13;;;16.10;76.20;;;;;;4893598;28;95639;-43
2022/05/18 06:24:15;;;;;;;2.10;1.13;;;16.10;76.20;;;;;;4892820;28;96981;-43
2022/05/18 06:26:46;;;;;;;1.98;1.23;;;16.10;76.20;;;;;;4891871;28;95770;-43
2022/05/18 06:29:17;;;;;;;1.40;1.30;;;16.10;76.80;;;;;;4893145;28;95770;-45
2022/05/18 06:31:49;;;;;;;1.17;0.90;;;16.10;76.30;;;;;;4888102;28;95645;-42
2022/05/18 06:34:21;;;;;;;2.42;1.02;;;16.10;76.20;;;;;;4892299;28;96064;-45
2022/05/18 06:36:52;;;;;;;2.63;1.17;;;16.10;76.20;;;;;;4891818;28;95665;-44
2022/05/18 06:39:24;;;;;;;2.22;1.10;;;16.10;76.20;;;;;;4893490;28;95786;-44
2022/05/18 06:41:57;;;;;;;3.53;1.50;;;16.10;76.20;;;;;;4890527;28;95832;-42
2022/05/18 06:44:28;;;;;;;2.65;1.20;;;16.10;76.20;;;;;;4895466;28;96105;-43
2022/05/18 06:47:03;;;;;;;3.05;1.90;;;16.00;76.20;;;;;;4888294;28;95683;-44
2022/05/18 06:49:34;;;;;;;1.40;1.10;;;16.00;76.10;;;;;;4893912;28;95304;-44
2022/05/18 06:52:09;;;;;;;1.50;1.00;;;16.00;76.20;;;;;;4893771;28;95737;-43
2022/05/18 06:54:40;;;;;;;1.92;1.00;;;16.00;76.30;;;;;;4893894;28;95916;-44
2022/05/18 06:57:18;;;;;;;1.95;1.35;;;16.00;76.20;;;;;;4882435;28;95748;-43
2022/05/18 06:59:48;;;;;;;3.38;1.55;;;16.00;76.20;;;;;;4891449;28;95566;-44
2022/05/18 07:02:20;;;;;;;1.88;1.13;;;16.00;76.30;;;;;;4886075;28;96017;-43
2022/05/18 07:04:54;;;;;;;1.88;1.33;;;16.00;76.20;;;;;;4893645;28;96769;-45
2022/05/18 07:07:25;;;;;;;2.05;1.40;;;16.00;76.20;;;;;;4891124;28;95836;-46
2022/05/18 07:09:56;;;;;;;1.25;1.15;;;16.00;76.20;;;;;;4892931;28;95662;-45
2022/05/18 07:12:27;;;;;;;3.73;1.33;;;16.00;76.20;;;;;;4893075;28;95424;-44
2022/05/18 07:14:58;;;;;;;1.30;1.05;;;16.00;76.20;;;;;;4891142;28;96884;-43
2022/05/18 07:17:29;;;;;;;;;;;15.90;76.20;;;;;;4881138;28;96111;-43
2022/05/18 07:20:20;;;;;;;1.33;0.80;;;15.90;76.20;;;;;;4893932;28;95624;-42
2022/05/18 07:22:52;;;;;;;1.55;1.25;;;15.90;76.20;;;;;;4892659;28;95886;-44
2022/05/18 07:25:23;;;;;;;1.90;1.13;;;15.90;76.30;;;;;;4892284;28;95720;-42
2022/05/18 07:27:54;;;;;;;1.60;1.30;;;15.90;76.30;;;;;;4892808;28;95475;-43
2022/05/18 07:30:46;;;;;;;1.60;1.15;;;15.90;76.30;;;;;;4881516;28;95261;-44
2022/05/18 07:33:17;;;;;;;;;;;15.90;76.40;;;;;;4892004;28;95761;-45
2022/05/18 07:35:49;;;;;;;3.03;1.40;;;15.80;76.30;;;;;;4892898;28;95783;-43
2022/05/18 07:38:21;;;;;;;1.75;1.50;;;15.80;76.40;;;;;;4892528;28;95819;-45
2022/05/18 07:41:11;;;;;;;3.05;1.45;;;15.80;76.40;;;;;;4891964;28;96016;-42
2022/05/18 07:43:41;;;;;;;3.00;1.65;;;15.80;76.40;;;;;;4883413;28;95870;-43
2022/05/18 07:46:13;;;;;;;1.50;1.40;;;15.80;76.40;;;;;;4885882;28;96054;-47
2022/05/18 07:48:44;;;;;;;3.17;1.50;;;15.80;76.50;;;;;;4891086;28;95741;-44
2022/05/18 07:51:17;;;;;;;2.20;1.33;;;15.80;76.50;;;;;;4891957;28;95653;-45
2022/05/18 07:53:49;;;;;;;1.60;1.40;;;15.80;76.50;;;;;;4892679;28;95564;-45
2022/05/18 07:56:20;;;;;;;1.50;1.40;;;15.80;76.50;;;;;;4893237;28;95649;-44
2022/05/18 07:58:50;;;;;;;1.70;1.57;;;15.70;76.50;;;;;;4888202;28;95780;-45
2022/05/18 08:01:21;;;;;;;3.35;1.92;;;15.70;76.50;;;;;;4886291;28;96089;-45
2022/05/18 08:03:53;;;;;;;1.98;1.30;;;15.70;76.50;;;;;;4892566;28;95900;-45
2022/05/18 08:06:25;;;;;;;1.67;1.58;;;15.70;76.60;;;;;;4891377;28;96496;-45
2022/05/18 08:08:58;;;;;;;3.45;1.38;;;15.70;76.50;;;;;;4893456;28;96239;-44
2022/05/18 08:17:10;;;;;;;1.63;1.25;;;15.70;76.60;;;;;;4876186;28;96394;-44
2022/05/18 08:19:42;;;;;;;3.72;2.20;;;15.70;76.60;;;;;;4889981;28;96014;-44
2022/05/18 08:22:14;;;;;;;3.50;1.85;;;15.70;76.70;;;;;;4890360;28;95856;-47
2022/05/18 08:24:46;;;;;;;1.77;1.50;;;15.70;76.70;;;;;;4891172;28;98163;-45
2022/05/18 08:27:19;;;;;;;2.17;1.58;;;15.70;76.70;;;;;;4888818;28;96469;-45
2022/05/18 08:29:50;;;;;;;2.58;1.58;;;15.70;76.70;;;;;;4891322;28;95847;-45
2022/05/18 08:32:20;;;;;;;2.15;1.60;;;15.70;76.70;;;;;;4885457;28;96211;-44
2022/05/18 08:34:52;;;;;;;1.98;1.63;;;15.70;76.90;;;;;;4892073;28;95829;-44
2022/05/18 08:37:23;;;;;;;2.20;1.52;;;15.70;76.70;;;;;;4891173;28;96661;-44
2022/05/18 08:39:54;;;;;;;4.25;1.98;;;15.80;76.70;;;;;;4889087;28;95573;-44
2022/05/18 08:42:25;;;;;;;2.85;2.00;;;15.80;76.60;;;;;;4890632;28;95889;-44
2022/05/18 08:44:56;;;;;;;2.50;1.70;;;15.90;76.60;;;;;;4892158;28;95730;-44
2022/05/18 08:47:41;;;;;;;5.53;2.33;;;15.90;76.60;;;;;;4885409;28;95933;-45
2022/05/18 08:50:20;;;;;;;3.20;1.85;;;16.00;77.30;;;;;;4892377;28;95958;-45
2022/05/18 08:52:53;;;;;;;3.58;1.90;;;16.00;76.60;;;;;;4892897;28;96132;-42
2022/05/18 08:55:29;;;;;;;2.88;2.00;;;16.10;76.60;;;;;;4891042;28;95462;-43
2022/05/18 08:58:01;;;;;;;4.00;2.38;;;16.10;76.50;;;;;;4891343;28;95874;-43
2022/05/18 09:00:41;;;;;;;3.08;1.90;;;16.20;76.50;;;;;;4887802;28;95833;-43
2022/05/18 09:03:22;;;;;;;2.22;1.95;;;16.20;76.40;;;;;;4894995;28;95617;-45
2022/05/18 09:06:12;;;;;;;2.92;2.13;;;16.30;76.40;;;;;;4897071;28;96069;-43
2022/05/18 09:10:12;;;;;;;3.33;1.85;;;16.30;76.30;;;;;;4889129;28;96163;-43
2022/05/18 09:11:44;;;;;;;2.47;1.48;;;16.40;76.40;;;;;;4893947;28;96957;-42
2022/05/18 09:14:20;;;;;;;2.13;1.92;;;16.50;76.30;;;;;;4893421;28;96072;-43
2022/05/18 09:17:09;;;;;;;2.80;2.40;;;16.50;76.20;;;;;;4878702;28;95730;-43
2022/05/18 09:19:54;;;;;;;4.68;3.00;;;16.60;76.20;;;;;;4892507;28;96802;-42
2022/05/18 09:22:59;;;;;;;3.72;2.17;;;16.70;76.30;;;;;;4897596;28;95733;-42
2022/05/18 09:25:34;;;;;;;3.13;2.40;;;16.70;76.10;;;;;;4898583;28;95987;-42
2022/05/18 09:28:27;;;;;;;5.70;3.47;;;16.80;76.00;;;;;;4894384;28;95616;-42
2022/05/18 09:31:23;;;;;;;7.00;3.75;;;16.80;75.90;;;;;;4887223;28;95775;-42
2022/05/18 09:34:25;;;;;;;6.03;3.38;;;16.80;75.80;;;;;;4893452;28;95930;-42
2022/05/18 09:37:08;;;;;;;4.65;3.05;;;16.80;72.50;;;;;;4890573;28;95821;-42
2022/05/18 09:39:48;;;;;;;6.07;2.85;;;16.80;75.80;;;;;;4890311;28;95259;-42
2022/05/18 09:42:25;;;;;;;6.30;3.40;;;16.80;75.80;;;;;;4908239;28;96611;-43
2022/05/18 09:45:04;;;;;;;4.70;3.10;;;16.80;75.90;;;;;;4893266;28;95960;-44
2022/05/18 09:47:57;;;;;;;4.22;3.10;;;16.80;75.80;;;;;;4889134;28;99391;-43
2022/05/18 09:50:28;;;;;;;5.78;3.25;;;16.80;75.80;;;;;;4891847;28;95771;-45
2022/05/18 09:53:01;;;;;;;4.82;3.38;;;16.80;75.80;;;;;;4891659;28;96512;-43
2022/05/18 09:55:37;;;;;;;4.07;3.15;;;16.80;75.80;;;;;;4893944;28;95973;-44
2022/05/18 09:58:35;;;;;;;4.85;3.33;;;16.80;75.70;;;;;;4894795;28;95256;-43
2022/05/18 10:09:50;;;;;;;6.70;4.25;;;16.70;75.70;;;;;;4891046;28;96026;-44
2022/05/18 10:12:26;;;;;;;7.32;4.70;;;16.70;75.70;;;;;;4894159;28;95375;-46
2022/05/18 10:15:07;;;;;;;6.53;4.15;;;16.70;75.60;;;;;;4892364;28;95952;-44
2022/05/18 10:17:49;;;;;;;7.00;4.45;;;16.70;75.50;;;;;;4893963;28;96052;-44
2022/05/18 10:20:37;;;;;;;7.10;4.25;;;16.60;75.50;;;;;;4908513;28;95718;-44
2022/05/18 10:23:51;;;;;;;11.32;6.07;;;16.60;75.50;;;;;;4912885;28;95738;-44
2022/05/18 10:26:29;;;;;;;8.45;4.53;;;16.60;75.50;;;;;;4909187;28;96415;-43
2022/05/18 10:29:14;;;;;;;6.95;4.20;;;16.60;75.50;;;;;;4910630;28;95731;-43
2022/05/18 10:32:01;;;;;;;5.60;4.38;;;16.60;75.60;;;;;;4899816;28;95651;-43
2022/05/18 10:34:41;;;;;;;6.30;3.88;;;16.60;75.50;;;;;;4909190;28;96015;-43
2022/05/18 10:37:14;;;;;;;6.97;4.15;;;16.60;75.50;;;;;;4908270;28;96295;-43
2022/05/18 10:39:49;;;;;;;5.15;3.70;;;16.60;75.40;;;;;;4910564;28;96582;-42
2022/05/18 10:42:28;;;;;;;6.22;4.25;;;16.60;75.30;;;;;;4912193;28;100098;-42
2022/05/18 10:45:01;;;;;;;7.70;4.50;;;16.60;75.40;;;;;;4913114;28;95796;-42
2022/05/18 10:47:38;;;;;;;9.02;3.92;;;16.60;75.40;;;;;;4907917;28;95839;-42
2022/05/18 10:50:26;;;;;;;7.65;3.90;;;16.60;75.50;;;;;;4912163;28;95429;-43
2022/05/18 10:53:01;;;;;;;7.30;4.03;;;16.60;75.50;;;;;;4907920;28;96051;-43
2022/05/18 10:55:32;;;;;;;5.28;3.70;;;16.60;75.50;;;;;;4912060;28;95467;-41
2022/05/18 10:58:10;;;;;;;7.10;3.63;;;16.60;75.60;;;;;;4915254;28;96053;-41
2022/05/18 11:00:50;;;;;;;5.28;3.15;;;16.60;75.60;;;;;;4903337;28;98294;-42
2022/05/18 11:03:32;;;;;;;5.28;3.42;;;16.60;75.50;;;;;;4906688;28;95413;-42
2022/05/18 11:06:12;;;;;;;5.18;3.35;;;16.60;75.50;;;;;;4909598;28;95459;-41
2022/05/18 11:08:43;;;;;;;7.20;3.63;;;16.50;75.50;;;;;;4910431;28;96053;-41
2022/05/18 11:11:52;;;;;;;6.25;3.58;;;16.60;75.50;;;;;;4907167;28;95828;-41
2022/05/18 11:14:46;;;;;;;9.65;3.10;;;16.60;75.50;;;;;;4904356;28;95953;-41
2022/05/18 11:17:45;;;;;;;11.35;4.45;;;16.60;75.50;;;;;;4909903;28;95985;-41
2022/05/18 11:20:53;;;;;;;4.18;3.00;;;16.60;72.10;;;;;;4904118;28;96260;-41
2022/05/18 11:23:45;;;;;;;3.90;2.80;;;16.60;75.50;;;;;;4906578;28;95385;-41
2022/05/18 11:26:22;;;;;;;8.80;3.17;;;16.70;75.40;;;;;;4907477;28;95874;-41
2022/05/18 11:29:25;;;;;;;3.80;2.83;;;16.70;75.30;;;;;;4908069;28;95951;-41
2022/05/18 11:32:26;;;;;;;4.60;3.10;;;16.70;75.20;;;;;;4902643;28;95975;-41
2022/05/18 11:35:22;;;;;;;5.13;2.95;;;16.70;75.10;;;;;;4890165;28;96529;-41
2022/05/18 11:38:17;;;;;;;7.03;3.47;;;16.70;74.90;;;;;;4881520;28;96163;-44
2022/05/18 11:41:01;;;;;;;4.40;2.33;;;16.60;74.90;;;;;;4905977;28;95581;-45
2022/05/18 11:43:50;;;;;;;6.55;2.72;;;16.50;75.50;;;;;;4902268;28;96777;-44
2022/05/18 11:46:26;;;;;;;6.38;3.22;;;16.50;75.50;;;;;;4898490;28;95884;-44
2022/05/18 11:49:49;;;;;;;6.68;2.78;;;16.60;75.40;;;;;;4905336;28;95412;-44
2022/05/18 11:52:44;;;;;;;4.78;2.83;;;16.50;75.30;;;;;;4904164;28;95861;-44
2022/05/18 11:55:44;;;;;;;5.10;2.50;;;16.50;75.20;;;;;;4907076;28;98121;-45
2022/05/18 11:58:25;;;;;;;4.47;2.83;;;16.50;75.30;;;;;;4906688;28;96472;-44
2022/05/18 12:01:11;;;;;;;6.57;3.50;;;16.50;71.90;;;;;;4898928;28;95876;-43
2022/05/18 12:04:17;;;;;;;4.65;3.25;;;16.40;75.10;;;;;;4907680;28;95826;-43
2022/05/18 12:07:22;;;;;;;3.00;2.70;;;16.40;75.00;;;;;;4906251;28;97854;-43
2022/05/18 12:10:04;;;;;;;6.13;3.35;;;16.40;75.10;;;;;;4906109;28;95980;-42
2022/05/18 12:12:44;;;;;;;4.70;2.60;;;16.40;75.00;;;;;;4904911;28;96053;-42
2022/05/18 12:15:50;;;;;;;4.72;2.67;;;16.50;75.20;;;;;;4897546;28;96146;-40
2022/05/18 12:18:41;;;;;;;4.13;2.42;;;16.60;75.90;;;;;;4881720;28;102563;-43
2022/05/18 12:21:23;;;;;;;3.95;2.53;;;16.70;75.30;;;;;;4886272;28;96375;-40
2022/05/18 12:24:00;;;;;;;5.35;2.42;;;16.80;75.20;;;;;;4885907;28;96333;-39
2022/05/18 12:26:36;;;;;;;2.83;2.53;;;16.80;75.30;;;;;;4888539;28;95855;-40
2022/05/18 12:29:09;;;;;;;3.40;2.50;;;16.90;75.30;;;;;;4889760;28;96192;-40
2022/05/18 12:31:42;;;;;;;6.32;2.78;;;17.00;75.30;;;;;;4890537;28;95760;-42
2022/05/18 12:34:13;;;;;;;2.03;1.83;;;17.10;75.30;;;;;;4904389;28;95772;-45
2022/05/18 12:37:03;;;;;;;3.17;2.38;;;17.10;75.10;;;;;;4904984;28;95891;-43
2022/05/18 12:40:03;;;;;;;4.50;2.27;;;17.10;75.00;;;;;;4906230;28;96720;-44
2022/05/18 12:42:48;;;;;;;2.90;2.10;;;17.10;75.00;;;;;;4905341;28;95813;-49
2022/05/18 12:45:47;;;;;;;2.58;2.22;;;17.10;75.10;;;;;;4914520;28;96561;-45
2022/05/18 12:48:43;;;;;;;2.83;2.28;;;17.20;75.10;;;;;;4908244;28;96511;-47
2022/05/18 12:51:37;;;;;;;3.25;1.95;;;17.30;74.90;;;;;;4909195;28;96266;-42
2022/05/18 12:54:12;;;;;;;2.30;2.10;;;17.40;74.70;;;;;;4909925;28;96022;-48
2022/05/18 12:57:07;;;;;;;2.63;2.22;;;17.50;74.40;;;;;;4907407;28;95404;-46
2022/05/18 13:00:20;;;;;;;2.90;2.30;;;17.60;74.40;;;;;;4922951;28;95898;-47
2022/05/18 13:03:04;;;;;;;2.33;2.05;;;17.70;74.20;;;;;;4909286;28;96865;-46
2022/05/18 13:05:48;;;;;;;2.17;1.95;;;17.70;74.10;;;;;;4909047;28;95847;-43
2022/05/18 13:08:18;;;;;;;3.42;2.53;;;17.80;74.10;;;;;;4910187;28;95998;-42
2022/05/18 13:11:30;;;;;;;2.53;2.07;;;17.90;74.00;;;;;;4910070;28;96588;-47
2022/05/18 13:14:56;;;;;;;3.17;1.93;;;18.00;74.00;;;;;;4907606;28;95761;-46
2022/05/18 13:17:52;;;;;;;2.95;2.28;;;18.10;73.70;;;;;;4879414;28;96443;-47
2022/05/18 13:20:22;;;;;;;2.85;2.20;;;18.20;73.60;;;;;;4889910;28;95706;-50
2022/05/18 13:23:08;;;;;;;3.28;2.55;;;18.20;73.40;;;;;;4889091;28;96672;-43
2022/05/18 13:25:43;;;;;;;3.53;2.67;;;18.30;73.40;;;;;;4886754;28;96105;-42
2022/05/18 13:28:16;;;;;;;5.07;2.78;;;18.30;73.30;;;;;;4888564;28;95841;-45
2022/05/18 13:30:57;;;;;;;3.33;2.78;;;18.40;73.20;;;;;;4883740;28;95863;-43
2022/05/18 13:33:57;;;;;;;3.25;2.75;;;18.50;73.20;;;;;;4888706;28;97671;-41
2022/05/18 13:36:46;;;;;;;3.83;2.97;;;18.50;72.90;;;;;;4883933;28;97615;-42
2022/05/18 13:39:33;;;;;;;5.07;3.67;;;18.50;73.10;;;;;;4880422;28;96074;-40
2022/05/18 13:42:18;;;;;;;6.30;4.35;;;18.40;72.30;;;;;;4885208;28;95748;-40
2022/05/18 13:44:54;;;;;;;6.80;5.13;;;18.40;72.30;;;;;;4892356;28;97607;-40
2022/05/18 13:47:46;;;;;;;8.00;5.57;;;18.30;71.80;;;;;;4886071;28;97048;-41
2022/05/18 13:50:36;;;;;;;6.53;4.90;;;18.20;71.50;;;;;;4894036;28;96029;-40
2022/05/18 13:53:27;;;;;;;7.50;6.05;;;18.20;71.60;;;;;;4887849;28;96370;-40
2022/05/18 13:56:19;;;;;;;10.05;6.97;;;18.10;71.20;;;;;;4892873;28;95615;-40
2022/05/18 13:58:53;;;;;;;13.40;7.80;;;18.00;71.10;;;;;;4888896;28;96416;-40